Time;durP1;ratioP1;P1;durP2;ratioP2;P2;SDS_P1;SDS_P2;PMS_P1;PMS_P2;Temp;Humidity;BMP_temperature;BMP_pressure;BME280_temperature;BME280_humidity;BME280_pressure;Samples;Min_cycle;Max_cycle;Signal;HPM_P1;HPM_P2
2023/10/14 00:02:05;;;;;;;2.67;0.87;;;;;;;18.27;60.86;95005.06;4352310;32;20257;-61
2023/10/14 00:04:32;;;;;;;5.87;2.13;;;;;;;18.28;61.76;95003.94;4358897;32;20214;-61
2023/10/14 00:07:05;;;;;;;0.63;0.63;;;;;;;18.29;62.17;94997.41;4355376;32;20189;-61
2023/10/14 00:09:36;;;;;;;7.50;1.77;;;;;;;18.39;63.62;94996.88;4344784;32;20204;-61
2023/10/14 00:12:09;;;;;;;1.93;1.27;;;;;;;18.41;63.67;94991.94;4357314;32;20208;-61
2023/10/14 00:14:36;;;;;;;1.27;1.17;;;;;;;18.35;62.13;94982.59;4348264;32;20276;-61
2023/10/14 00:17:05;;;;;;;1.07;1.07;;;;;;;18.37;62.65;94982.25;4351484;32;20211;-61
2023/10/14 00:19:30;;;;;;;3.00;1.63;;;;;;;18.36;61.47;94986.06;4359226;32;20197;-61
2023/10/14 00:21:55;;;;;;;1.20;0.93;;;;;;;18.38;61.73;94989.97;4360558;32;20219;-61
2023/10/14 00:24:26;;;;;;;1.00;1.00;;;;;;;18.36;61.02;94981.47;4347873;32;20201;-61
2023/10/14 00:26:55;;;;;;;1.00;1.00;;;;;;;18.30;61.30;94982.88;4339929;32;20189;-61
2023/10/14 00:29:21;;;;;;;0.90;0.90;;;;;;;18.32;60.29;94996.72;4343639;32;20200;-61
2023/10/14 00:31:48;;;;;;;2.10;1.53;;;;;;;18.32;61.73;94988.66;4354609;32;20207;-61
2023/10/14 00:34:14;;;;;;;0.90;0.90;;;;;;;18.27;62.02;94988.19;4347186;32;20216;-61
2023/10/14 00:36:40;;;;;;;3.00;1.30;;;;;;;18.28;61.23;94987.06;4354061;32;20189;-61
2023/10/14 00:39:38;;;;;;;1.20;1.13;;;;;;;18.37;63.27;94983.03;4360411;32;20193;-61
2023/10/14 00:41:58;;;;;;;1.73;1.13;;;;;;;18.26;61.53;94992.78;4351734;32;20209;-61
2023/10/14 00:44:24;;;;;;;1.10;1.10;;;;;;;18.24;61.95;94984.28;4348025;32;20255;-61
2023/10/14 00:46:50;;;;;;;1.13;1.13;;;;;;;18.20;61.59;94980.75;4347948;32;20232;-61
2023/10/14 00:49:34;;;;;;;1.17;1.17;;;;;;;18.18;60.42;94983.78;4347838;32;20244;-61
2023/10/14 00:52:16;;;;;;;6.53;2.13;;;;;;;18.35;62.19;94969.16;4347829;32;20239;-60
2023/10/14 00:59:45;;;;;;;1.87;1.77;;;;;;;18.20;60.99;94973.47;4358348;32;20250;-61
2023/10/14 01:02:10;;;;;;;4.17;1.17;;;;;;;18.30;62.98;94966.75;4348042;32;20248;-61
2023/10/14 01:04:39;;;;;;;1.90;1.17;;;;;;;18.29;64.77;94969.81;4347580;32;20303;-61
2023/10/14 01:07:06;;;;;;;0.30;0.30;;;;;;;18.25;59.89;94969.72;4361514;32;20316;-61
2023/10/14 01:09:41;;;;;;;0.80;0.80;;;;;;;18.26;62.28;94959.78;4361171;32;20196;-61
2023/10/14 01:12:17;;;;;;;1.27;1.07;;;;;;;18.09;60.35;94969.75;4353000;32;20193;-61
2023/10/14 01:14:46;;;;;;;0.80;0.80;;;;;;;18.19;63.93;94984.53;4348138;32;20193;-61
2023/10/14 01:17:25;;;;;;;1.97;1.77;;;;;;;18.32;64.24;94979.81;4361031;32;20193;-61
2023/10/14 01:19:51;;;;;;;1.37;1.27;;;;;;;18.29;63.70;94975.94;4350549;32;20189;-61
2023/10/14 01:22:17;;;;;;;1.80;1.33;;;;;;;18.22;61.33;94965.06;4347082;32;20196;-61
2023/10/14 01:24:42;;;;;;;0.87;0.87;;;;;;;18.25;63.56;94975.09;4363077;32;20197;-61
2023/10/14 01:27:10;;;;;;;2.43;1.40;;;;;;;18.06;63.97;94961.63;4344308;32;20184;-61
2023/10/14 01:29:39;;;;;;;1.63;1.53;;;;;;;18.13;63.40;94970.59;4356417;32;20190;-61
2023/10/14 01:32:36;;;;;;;1.07;0.90;;;;;;;18.19;64.38;94971.13;4342692;32;20268;-61
2023/10/14 01:35:20;;;;;;;3.07;1.87;;;;;;;18.18;65.18;94964.19;4360591;32;20212;-61
2023/10/14 01:37:45;;;;;;;1.00;1.00;;;;;;;18.19;64.94;94971.13;4345749;32;20197;-60
2023/10/14 01:40:24;;;;;;;0.60;0.60;;;;;;;18.16;64.26;94966.44;4362124;32;20267;-61
2023/10/14 01:42:56;;;;;;;1.57;1.10;;;;;;;18.09;63.37;94959.00;4357451;32;20247;-61
2023/10/14 01:45:31;;;;;;;6.33;0.97;;;;;;;18.06;63.21;94961.63;4356291;32;20189;-61
2023/10/14 01:48:12;;;;;;;0.60;0.60;;;;;;;18.02;63.44;94956.19;4345389;32;20227;-61
2023/10/14 01:50:46;;;;;;;0.70;0.70;;;;;;;18.12;66.24;94950.25;4343449;32;20211;-61
2023/10/14 01:53:12;;;;;;;1.03;1.03;;;;;;;18.16;64.67;94950.34;4355904;32;20250;-61
2023/10/14 01:55:42;;;;;;;0.90;0.90;;;;;;;18.06;64.70;94956.25;4344441;32;20188;-61
2023/10/14 01:58:57;;;;;;;1.03;1.00;;;;;;;17.98;63.50;94938.44;4345292;32;20247;-61
2023/10/14 02:03:47;;;;;;;2.27;0.93;;;;;;;17.87;62.06;94936.25;4349941;32;20256;-61
2023/10/14 02:06:18;;;;;;;0.90;0.90;;;;;;;17.83;64.87;94924.69;4347607;32;20244;-61
2023/10/14 02:08:44;;;;;;;0.63;0.63;;;;;;;18.01;64.64;94938.50;4358498;32;20197;-61
2023/10/14 02:11:10;;;;;;;1.23;1.13;;;;;;;17.94;61.79;94932.19;4359381;32;20251;-61
2023/10/14 02:13:36;;;;;;;0.97;0.97;;;;;;;18.03;64.97;94927.44;4346925;32;20189;-61
2023/10/14 02:16:08;;;;;;;0.43;0.43;;;;;;;17.90;61.89;94920.59;4360274;32;20189;-61
2023/10/14 02:18:38;;;;;;;4.67;1.20;;;;;;;17.96;63.47;94921.88;4346660;32;20256;-61
2023/10/14 02:21:16;;;;;;;3.07;1.77;;;;;;;18.06;65.67;94921.38;4346539;32;20212;-61
2023/10/14 02:23:47;;;;;;;0.40;0.40;;;;;;;17.91;61.43;94924.84;4354853;32;20207;-61
2023/10/14 02:26:28;;;;;;;1.07;0.50;;;;;;;17.98;65.15;94927.69;4356738;32;20193;-61
2023/10/14 02:28:54;;;;;;;1.60;1.50;;;;;;;17.89;61.32;94925.19;4352230;32;20215;-61
2023/10/14 02:31:35;;;;;;;2.07;1.47;;;;;;;18.01;64.04;94933.16;4349703;32;20288;-61
2023/10/14 02:34:06;;;;;;;2.07;0.77;;;;;;;17.92;63.75;94929.06;4352078;32;20203;-61
2023/10/14 02:36:35;;;;;;;0.70;0.70;;;;;;;17.84;63.26;94928.94;4350570;32;20253;-61
2023/10/14 02:39:14;;;;;;;1.60;0.90;;;;;;;17.76;61.62;94931.78;4346319;32;20185;-61
2023/10/14 02:41:44;;;;;;;2.27;1.63;;;;;;;17.96;63.68;94935.31;4344525;32;20199;-61
2023/10/14 02:46:42;;;;;;;1.00;1.00;;;;;;;17.98;62.89;94935.75;4349844;32;20201;-61
2023/10/14 02:49:13;;;;;;;0.67;0.67;;;;;;;17.84;61.83;94942.34;4361994;32;20203;-61
2023/10/14 02:51:43;;;;;;;0.67;0.63;;;;;;;17.92;63.41;94937.91;4351805;32;20246;-61
2023/10/14 02:54:14;;;;;;;0.97;0.77;;;;;;;17.90;63.00;94940.16;4359479;32;20229;-61
2023/10/14 02:59:19;;;;;;;1.70;1.37;;;;;;;18.01;62.45;94935.81;4361373;32;20206;-60
2023/10/14 03:02:09;;;;;;;1.10;1.10;;;;;;;17.87;63.29;94924.78;4364807;32;20203;-61
2023/10/14 03:04:39;;;;;;;3.50;1.00;;;;;;;17.96;62.28;94932.63;4357466;32;20207;-61
2023/10/14 03:07:05;;;;;;;0.57;0.57;;;;;;;18.02;64.32;94932.03;4357925;32;20268;-61
2023/10/14 03:09:34;;;;;;;1.40;1.37;;;;;;;17.92;61.75;94927.16;4349328;32;20193;-61
2023/10/14 03:12:00;;;;;;;0.60;0.60;;;;;;;17.98;64.31;94923.09;4343349;32;20244;-61
2023/10/14 03:14:26;;;;;;;1.43;1.07;;;;;;;17.96;63.26;94919.22;4361783;32;20204;-61
2023/10/14 03:16:53;;;;;;;1.33;0.87;;;;;;;18.00;63.98;94931.59;4349215;32;20193;-61
2023/10/14 03:19:18;;;;;;;0.70;0.70;;;;;;;18.03;62.75;94925.53;4353784;32;20181;-61
2023/10/14 03:21:53;;;;;;;3.97;1.17;;;;;;;18.08;62.55;94930.59;4348533;32;20192;-61
2023/10/14 03:24:20;;;;;;;1.40;1.37;;;;;;;18.02;61.87;94933.91;4346645;32;20210;-61
2023/10/14 03:26:53;;;;;;;2.00;1.40;;;;;;;18.07;62.57;94941.72;4361868;32;20185;-60
2023/10/14 03:29:23;;;;;;;0.70;0.70;;;;;;;18.05;59.95;94936.69;4362971;32;20193;-61
2023/10/14 03:31:50;;;;;;;7.33;1.07;;;;;;;18.04;62.50;94932.44;4362508;32;20245;-61
2023/10/14 03:34:17;;;;;;;2.40;1.03;;;;;;;17.99;60.81;94932.72;4362718;32;20189;-60
2023/10/14 03:36:43;;;;;;;1.20;1.20;;;;;;;18.07;62.84;94929.06;4350606;32;20230;-61
2023/10/14 03:39:37;;;;;;;1.90;1.00;;;;;;;18.06;62.07;94929.41;4342196;32;20193;-61
2023/10/14 03:42:10;;;;;;;1.10;1.10;;;;;;;18.02;63.79;94933.91;4356814;32;20189;-61
2023/10/14 03:44:41;;;;;;;1.23;1.13;;;;;;;18.17;65.02;94930.41;4357825;32;20198;-61
2023/10/14 03:47:16;;;;;;;0.87;0.87;;;;;;;18.10;63.29;94930.25;4347938;32;20185;-61
2023/10/14 03:49:45;;;;;;;1.00;1.00;;;;;;;18.02;63.59;94936.59;4361919;32;20215;-61
2023/10/14 03:52:12;;;;;;;1.43;1.27;;;;;;;17.99;59.07;94930.03;4362105;32;20193;-61
2023/10/14 03:54:45;;;;;;;0.63;0.63;;;;;;;18.10;60.25;94925.66;4348400;32;20193;-61
2023/10/14 03:57:19;;;;;;;0.70;0.70;;;;;;;18.21;57.73;94925.91;4348953;32;20213;-61
2023/10/14 03:59:46;;;;;;;2.63;1.67;;;;;;;18.28;57.57;94927.97;4360480;32;20189;-60
2023/10/14 04:02:15;;;;;;;1.90;1.37;;;;;;;18.38;56.93;94925.50;4353537;32;20249;-61
2023/10/14 04:04:43;;;;;;;0.97;0.97;;;;;;;18.52;55.49;94919.63;4342583;32;20251;-61
2023/10/14 04:09:51;;;;;;;1.30;1.30;;;;;;;18.75;55.04;94917.81;4361898;32;20276;-61
2023/10/14 04:12:30;;;;;;;2.83;1.13;;;;;;;18.82;55.04;94917.19;4348257;32;20189;-61
2023/10/14 04:15:23;;;;;;;0.67;0.67;;;;;;;18.91;54.73;94915.06;4348054;32;20181;-61
2023/10/14 04:17:52;;;;;;;2.27;1.07;;;;;;;18.95;54.91;94913.19;4346498;32;20203;-61
2023/10/14 04:20:29;;;;;;;1.10;1.00;;;;;;;19.00;54.35;94904.84;4361866;32;20223;-61
2023/10/14 04:22:57;;;;;;;1.03;1.03;;;;;;;18.99;55.04;94915.94;4351672;32;20258;-61
2023/10/14 04:25:42;;;;;;;1.27;1.27;;;;;;;19.05;54.88;94904.56;4362138;32;20197;-61
2023/10/14 04:28:30;;;;;;;0.93;0.93;;;;;;;19.12;54.73;94910.03;4341632;32;20269;-62
2023/10/14 04:31:00;;;;;;;0.80;0.80;;;;;;;19.11;55.90;94913.91;4357525;32;20208;-61
2023/10/14 04:33:34;;;;;;;0.77;0.70;;;;;;;19.14;56.88;94907.00;4350959;32;20189;-61
2023/10/14 04:36:22;;;;;;;1.60;1.50;;;;;;;19.11;56.11;94900.44;4345406;32;20255;-61
2023/10/14 04:38:44;;;;;;;1.30;1.20;;;;;;;19.11;56.35;94913.91;4330526;32;20204;-61
2023/10/14 04:41:14;;;;;;;4.17;1.40;;;;;;;19.20;56.52;94905.56;4349244;32;20201;-61
2023/10/14 04:46:16;;;;;;;0.60;0.60;;;;;;;19.29;57.30;94895.37;4362097;32;20188;-62
2023/10/14 04:48:50;;;;;;;0.93;0.93;;;;;;;19.28;58.12;94904.56;4347869;32;20181;-61
2023/10/14 04:51:16;;;;;;;0.70;0.70;;;;;;;19.30;57.55;94898.84;4345981;32;20181;-61
2023/10/14 04:53:46;;;;;;;1.37;1.27;;;;;;;19.32;58.17;94901.94;4357670;32;20198;-62
2023/10/14 04:56:20;;;;;;;2.20;1.27;;;;;;;19.34;58.55;94899.66;4326452;32;20196;-61
2023/10/14 04:58:46;;;;;;;1.00;1.00;;;;;;;19.33;58.77;94892.75;4354150;32;20189;-61
2023/10/14 05:01:17;;;;;;;0.70;0.70;;;;;;;19.32;58.49;94897.34;4353694;32;20192;-62
2023/10/14 05:03:43;;;;;;;1.60;1.43;;;;;;;19.31;59.71;94889.63;4348572;32;20235;-62
2023/10/14 05:08:44;;;;;;;1.00;1.00;;;;;;;19.37;60.29;94894.34;4361063;32;20188;-62
2023/10/14 05:11:13;;;;;;;0.73;0.73;;;;;;;19.38;60.59;94900.50;4360470;32;20207;-62
2023/10/14 05:16:26;;;;;;;0.97;0.97;;;;;;;19.43;60.91;94884.06;4360770;32;20211;-61
2023/10/14 05:19:00;;;;;;;1.13;1.13;;;;;;;19.47;61.00;94876.81;4323616;32;20193;-61
2023/10/14 05:21:36;;;;;;;0.90;0.90;;;;;;;19.44;61.60;94877.53;4347239;32;20195;-61
2023/10/14 05:24:03;;;;;;;1.83;1.73;;;;;;;19.49;61.41;94864.56;4347715;32;20207;-62
2023/10/14 05:26:35;;;;;;;7.10;1.37;;;;;;;19.52;61.71;94885.41;4360950;32;20197;-62
2023/10/14 05:29:16;;;;;;;4.37;1.47;;;;;;;19.58;61.97;94883.16;4361275;32;20201;-62
2023/10/14 05:31:43;;;;;;;1.03;1.00;;;;;;;19.54;61.91;94885.00;4338392;32;20197;-62
2023/10/14 05:34:09;;;;;;;1.80;1.70;;;;;;;19.61;61.87;94887.81;4347598;32;20200;-61
2023/10/14 05:36:35;;;;;;;1.13;1.10;;;;;;;19.60;61.67;94893.56;4347585;32;20337;-62
2023/10/14 05:39:02;;;;;;;1.20;1.20;;;;;;;19.61;61.76;94897.81;4361440;32;20261;-62
2023/10/14 05:41:28;;;;;;;1.17;1.17;;;;;;;19.62;61.98;94883.22;4326469;32;20193;-62
2023/10/14 05:43:54;;;;;;;2.00;0.90;;;;;;;19.59;62.71;94883.94;4343396;32;20224;-61
2023/10/14 05:46:20;;;;;;;1.07;1.07;;;;;;;19.56;62.74;94888.91;4346008;32;20230;-61
2023/10/14 05:48:46;;;;;;;1.53;1.47;;;;;;;19.54;62.65;94901.94;4333992;32;20245;-60
2023/10/14 05:51:11;;;;;;;1.07;1.07;;;;;;;19.52;63.27;94895.37;4354551;32;20360;-62
2023/10/14 05:53:36;;;;;;;2.13;1.57;;;;;;;19.46;63.95;94907.56;4360262;32;20232;-61
2023/10/14 05:56:14;;;;;;;1.40;1.17;;;;;;;19.41;63.87;94905.94;4338251;32;20205;-61
2023/10/14 05:58:45;;;;;;;1.33;1.27;;;;;;;19.53;63.59;94902.31;4360881;32;20189;-62
2023/10/14 06:01:13;;;;;;;1.90;1.27;;;;;;;19.48;64.41;94895.28;4348001;32;20231;-62
2023/10/14 06:03:41;;;;;;;1.03;1.03;;;;;;;19.49;64.20;94896.06;4347894;32;20192;-62
2023/10/14 06:06:09;;;;;;;1.00;1.00;;;;;;;19.49;64.51;94906.84;4361161;32;20200;-61
2023/10/14 06:08:39;;;;;;;2.07;1.13;;;;;;;19.46;64.71;94913.72;4361308;32;20276;-62
2023/10/14 06:11:07;;;;;;;1.67;1.57;;;;;;;19.48;64.94;94895.28;4347439;32;20213;-62
2023/10/14 06:13:35;;;;;;;0.90;0.90;;;;;;;19.46;65.68;94902.16;4360116;32;20215;-62
2023/10/14 06:16:10;;;;;;;11.77;2.47;;;;;;;19.47;65.59;94925.25;4360806;32;20252;-62
2023/10/14 06:18:37;;;;;;;0.97;0.93;;;;;;;19.51;65.56;94915.38;4347795;32;20343;-62
2023/10/14 06:21:05;;;;;;;0.90;0.90;;;;;;;19.54;65.52;94914.63;4337583;32;20192;-62
2023/10/14 06:23:32;;;;;;;1.87;1.23;;;;;;;19.54;65.72;94920.78;4364542;32;20189;-62
2023/10/14 06:25:57;;;;;;;0.80;0.80;;;;;;;19.51;65.82;94926.91;4349336;32;20192;-62
2023/10/14 06:28:23;;;;;;;0.97;0.97;;;;;;;19.53;65.90;94929.25;4346042;32;20240;-62
2023/10/14 06:30:49;;;;;;;1.00;1.00;;;;;;;19.51;66.06;94926.13;4357884;32;20207;-62
2023/10/14 06:33:14;;;;;;;0.90;0.90;;;;;;;19.56;65.85;94939.25;4365712;32;20197;-62
2023/10/14 06:35:43;;;;;;;0.60;0.60;;;;;;;19.53;66.03;94937.31;4363309;32;20196;-61
2023/10/14 06:38:17;;;;;;;1.20;1.10;;;;;;;19.59;65.90;94946.63;4349533;32;20185;-62
2023/10/14 06:40:44;;;;;;;1.47;1.17;;;;;;;19.58;66.22;94946.97;4350965;32;20188;-62
2023/10/14 06:43:09;;;;;;;1.30;1.30;;;;;;;19.57;66.29;94956.97;4363752;32;20189;-61
2023/10/14 06:45:37;;;;;;;1.60;1.50;;;;;;;19.51;66.82;94959.19;4363271;32;20306;-61
2023/10/14 06:48:04;;;;;;;3.90;1.37;;;;;;;19.56;66.78;94950.03;4363268;32;20248;-62
2023/10/14 06:50:31;;;;;;;1.67;1.57;;;;;;;19.58;66.83;94945.06;4348413;32;20204;-61
2023/10/14 06:53:00;;;;;;;1.93;1.70;;;;;;;19.58;67.13;94960.44;4362928;32;20211;-61
2023/10/14 06:55:33;;;;;;;1.40;1.40;;;;;;;19.57;66.78;94983.88;4348823;32;20193;-62
2023/10/14 06:57:59;;;;;;;0.83;0.83;;;;;;;19.62;66.85;94969.34;4356353;32;20185;-61
2023/10/14 07:00:31;;;;;;;1.43;1.33;;;;;;;19.59;67.16;94975.44;4358788;32;20223;-62
2023/10/14 07:03:01;;;;;;;0.80;0.77;;;;;;;19.61;67.37;94983.94;4354317;32;20249;-62
2023/10/14 07:05:29;;;;;;;1.20;1.20;;;;;;;19.59;67.35;94984.28;4349534;32;20189;-61
2023/10/14 07:07:58;;;;;;;1.43;1.43;;;;;;;19.58;67.57;94974.66;4357192;32;20256;-61
2023/10/14 07:10:32;;;;;;;1.13;1.13;;;;;;;19.51;67.67;94990.72;4362860;32;20197;-61
2023/10/14 07:12:58;;;;;;;1.03;1.03;;;;;;;19.53;67.64;95004.59;4362798;32;20182;-62
2023/10/14 07:15:33;;;;;;;3.77;1.03;;;;;;;19.48;68.40;94997.56;4340114;32;20212;-61
2023/10/14 07:17:59;;;;;;;2.43;1.53;;;;;;;19.55;68.19;94996.91;4348512;32;20192;-61
2023/10/14 07:20:34;;;;;;;0.90;0.90;;;;;;;19.54;68.21;94995.34;4348080;32;20177;-61
2023/10/14 07:23:01;;;;;;;0.87;0.87;;;;;;;19.50;68.63;95003.38;4349609;32;20193;-61
2023/10/14 07:25:32;;;;;;;0.87;0.87;;;;;;;19.49;68.88;95009.09;4341845;32;20232;-61
2023/10/14 07:27:59;;;;;;;3.63;1.47;;;;;;;19.50;69.11;95005.28;4349399;32;20185;-62
2023/10/14 07:30:27;;;;;;;2.10;1.07;;;;;;;19.50;69.61;95005.28;4341579;32;20194;-61
2023/10/14 07:32:54;;;;;;;21.30;1.67;;;;;;;19.48;69.77;95004.84;4343260;32;20260;-61
2023/10/14 07:35:20;;;;;;;0.73;0.73;;;;;;;19.47;70.05;95008.66;4348729;32;20254;-61
2023/10/14 07:37:53;;;;;;;0.80;0.80;;;;;;;19.53;70.14;95004.59;4362257;32;20212;-61
2023/10/14 07:40:23;;;;;;;1.07;1.07;;;;;;;19.54;70.04;94996.13;4345439;32;20225;-61
2023/10/14 07:42:59;;;;;;;14.13;1.10;;;;;;;19.48;70.37;95000.25;4348927;32;20203;-61
2023/10/14 07:45:35;;;;;;;1.27;1.20;;;;;;;19.51;70.53;94991.50;4346767;32;20224;-61
2023/10/14 07:48:08;;;;;;;2.50;2.07;;;;;;;19.49;70.79;95014.47;4358300;32;20269;-61
2023/10/14 07:50:37;;;;;;;2.07;1.17;;;;;;;19.43;71.00;94989.75;4346659;32;20205;-61
2023/10/14 07:53:07;;;;;;;0.90;0.90;;;;;;;19.43;71.12;95010.50;4348530;32;20238;-62
2023/10/14 07:55:43;;;;;;;0.50;0.50;;;;;;;19.44;71.37;94995.94;4362184;32;20247;-62
2023/10/14 07:58:13;;;;;;;0.80;0.80;;;;;;;19.41;71.55;95010.09;4346545;32;20188;-61
2023/10/14 08:00:40;;;;;;;0.77;0.77;;;;;;;19.49;71.18;95006.41;4337623;32;20218;-62
2023/10/14 08:03:07;;;;;;;1.53;1.43;;;;;;;19.50;71.04;95005.28;4348420;32;20328;-61
2023/10/14 08:05:38;;;;;;;1.43;1.33;;;;;;;19.44;71.61;94990.53;4352287;32;20184;-61
2023/10/14 08:08:09;;;;;;;2.73;1.50;;;;;;;19.43;71.75;94986.28;4348756;32;20185;-61
2023/10/14 08:10:45;;;;;;;1.17;1.17;;;;;;;19.37;72.11;94991.19;4354690;32;20203;-62
2023/10/14 08:13:12;;;;;;;1.90;1.07;;;;;;;19.39;72.30;94998.91;4362831;32;20188;-61
2023/10/14 08:15:37;;;;;;;2.43;1.13;;;;;;;19.41;72.09;95004.72;4346088;32;20181;-62
2023/10/14 08:18:07;;;;;;;2.40;0.93;;;;;;;19.37;72.38;94995.78;4338207;32;20211;-61
2023/10/14 08:20:33;;;;;;;0.87;0.87;;;;;;;19.37;72.25;94996.56;4347843;32;20189;-62
2023/10/14 08:23:00;;;;;;;1.40;1.30;;;;;;;19.36;71.69;94989.62;4357661;32;20192;-61
2023/10/14 08:25:26;;;;;;;1.70;1.07;;;;;;;19.39;71.28;94996.22;4355337;32;20185;-61
2023/10/14 08:27:53;;;;;;;0.87;0.87;;;;;;;19.32;71.92;94988.03;4359334;32;20254;-61
2023/10/14 08:30:19;;;;;;;1.30;1.20;;;;;;;19.31;71.70;94997.22;4348974;32;20197;-61
2023/10/14 08:32:46;;;;;;;1.40;1.30;;;;;;;19.33;71.69;94993.03;4360486;32;20243;-62
2023/10/14 08:35:19;;;;;;;0.37;0.37;;;;;;;19.41;71.15;95002.00;4347696;32;20211;-61
2023/10/14 08:37:47;;;;;;;1.67;1.57;;;;;;;19.39;71.36;94998.91;4361022;32;20203;-60
2023/10/14 08:40:26;;;;;;;1.57;1.47;;;;;;;19.39;71.18;95005.06;4351040;32;20216;-61
2023/10/14 08:42:55;;;;;;;0.77;0.77;;;;;;;19.39;71.81;95006.97;4347362;32;20237;-61
2023/10/14 08:45:22;;;;;;;1.07;1.07;;;;;;;19.45;71.29;95019.00;4360444;32;20197;-61
2023/10/14 08:47:52;;;;;;;8.60;1.30;;;;;;;19.52;71.09;95008.41;4347365;32;20197;-61
2023/10/14 08:50:25;;;;;;;1.00;1.00;;;;;;;19.46;71.18;95001.72;4360897;32;20199;-61
2023/10/14 08:52:56;;;;;;;1.43;1.23;;;;;;;19.44;71.10;95023.59;4340986;32;20197;-61
2023/10/14 08:55:22;;;;;;;1.63;1.53;;;;;;;19.50;70.79;95008.75;4343478;32;20240;-61
2023/10/14 08:57:49;;;;;;;1.50;1.30;;;;;;;19.52;70.80;95017.25;4347733;32;20250;-61
2023/10/14 09:00:23;;;;;;;1.17;1.17;;;;;;;19.49;70.91;95017.16;4349839;32;20189;-62
2023/10/14 09:02:53;;;;;;;1.37;1.27;;;;;;;19.55;70.52;95042.66;4336584;32;20180;-61
2023/10/14 09:05:19;;;;;;;1.47;1.37;;;;;;;19.42;70.12;95025.09;4361014;32;20250;-61
2023/10/14 09:07:49;;;;;;;1.63;1.53;;;;;;;19.47;70.12;95016.75;4349348;32;20209;-61
2023/10/14 09:10:18;;;;;;;1.27;1.17;;;;;;;19.40;70.74;95032.75;4361358;32;20203;-61
2023/10/14 09:13:08;;;;;;;0.93;0.93;;;;;;;19.44;70.62;95044.34;4358021;32;20193;-61
2023/10/14 09:15:38;;;;;;;1.27;1.27;;;;;;;19.44;69.60;95044.34;4361248;32;20184;-62
2023/10/14 09:18:12;;;;;;;1.00;1.00;;;;;;;19.46;69.22;95042.09;4347700;32;20200;-61
2023/10/14 09:20:38;;;;;;;1.07;1.07;;;;;;;19.32;68.83;95047.22;4347170;32;20216;-61
2023/10/14 09:23:16;;;;;;;1.00;1.00;;;;;;;19.35;68.60;95044.56;4343490;32;20236;-61
2023/10/14 09:25:58;;;;;;;1.67;1.40;;;;;;;19.38;68.63;95051.16;4349421;32;20267;-61
2023/10/14 09:28:28;;;;;;;1.87;1.77;;;;;;;19.44;67.97;95041.66;4334498;32;20210;-61
2023/10/14 09:30:56;;;;;;;1.23;1.23;;;;;;;19.38;67.96;95035.00;4356153;32;20212;-61
2023/10/14 09:33:34;;;;;;;2.10;1.43;;;;;;;19.42;67.38;95041.25;4347215;32;20255;-62
2023/10/14 09:36:11;;;;;;;1.67;1.57;;;;;;;19.44;67.27;95055.91;4347274;32;20185;-61
2023/10/14 09:38:37;;;;;;;1.77;1.63;;;;;;;19.48;67.66;95050.59;4351644;32;20227;-62
2023/10/14 09:41:07;;;;;;;0.87;0.87;;;;;;;19.47;67.51;95046.34;4360616;32;20182;-61
2023/10/14 09:43:46;;;;;;;0.70;0.70;;;;;;;19.47;67.57;95057.88;4353096;32;20193;-61
2023/10/14 09:46:16;;;;;;;6.13;1.83;;;;;;;19.46;67.67;95055.53;4343644;32;20193;-62
2023/10/14 09:48:45;;;;;;;4.93;1.27;;;;;;;19.44;67.17;95044.34;4360495;32;20197;-62
2023/10/14 09:51:14;;;;;;;4.57;1.50;;;;;;;19.46;67.27;95060.94;4346179;32;20224;-62
2023/10/14 09:53:39;;;;;;;1.87;1.77;;;;;;;19.46;67.61;95072.47;4342589;32;20190;-62
2023/10/14 09:56:11;;;;;;;0.97;0.97;;;;;;;19.42;68.06;95060.06;4337418;32;20305;-62
2023/10/14 09:58:43;;;;;;;1.60;1.60;;;;;;;19.33;68.16;95059.53;4347088;32;20189;-62
2023/10/14 10:01:16;;;;;;;1.53;1.50;;;;;;;19.35;68.13;95063.41;4337751;32;20203;-62
2023/10/14 10:04:03;;;;;;;5.63;1.47;;;;;;;19.38;68.34;95059.22;4361163;32;20201;-62
2023/10/14 10:06:50;;;;;;;1.20;1.20;;;;;;;19.43;68.79;95064.31;4352670;32;20200;-62
2023/10/14 10:09:40;;;;;;;1.47;1.37;;;;;;;19.38;68.70;95062.69;4345778;32;20201;-61
2023/10/14 10:12:10;;;;;;;1.30;1.30;;;;;;;19.26;68.91;95080.91;4346085;32;20336;-62
2023/10/14 10:14:45;;;;;;;1.80;0.87;;;;;;;19.21;69.16;95063.13;4346863;32;20307;-62
2023/10/14 10:17:12;;;;;;;1.80;1.57;;;;;;;19.32;69.27;95068.75;4347156;32;20245;-62
2023/10/14 10:20:16;;;;;;;1.10;1.10;;;;;;;19.27;68.33;95055.56;4347086;32;20197;-62
2023/10/14 10:22:50;;;;;;;1.73;1.63;;;;;;;19.13;68.96;95061.41;4340895;32;20194;-62
2023/10/14 10:25:36;;;;;;;1.00;1.00;;;;;;;19.09;69.22;95053.31;4351316;32;20260;-61
2023/10/14 10:28:34;;;;;;;18.80;1.50;;;;;;;19.02;70.01;95060.44;4329876;32;20271;-62
2023/10/14 10:31:09;;;;;;;1.10;1.00;;;;;;;19.01;70.17;95065.03;4326809;32;20181;-62
2023/10/14 10:33:53;;;;;;;1.10;1.10;;;;;;;19.01;70.63;95067.72;4336742;32;20193;-62
2023/10/14 10:36:25;;;;;;;0.97;0.97;;;;;;;18.99;70.54;95056.53;4334850;32;20194;-62
2023/10/14 10:38:55;;;;;;;1.63;1.47;;;;;;;18.99;70.23;95059.22;4346944;32;20211;-62
2023/10/14 10:41:27;;;;;;;1.70;1.17;;;;;;;18.98;70.39;95054.22;4346909;32;20181;-61
2023/10/14 10:44:01;;;;;;;1.07;0.97;;;;;;;19.01;69.88;95048.91;4355772;32;20189;-62
2023/10/14 10:46:38;;;;;;;3.03;1.83;;;;;;;19.00;70.12;95047.34;4345325;32;20245;-62
2023/10/14 10:49:07;;;;;;;0.40;0.40;;;;;;;19.00;70.11;95047.34;4346312;32;20188;-62
2023/10/14 10:51:34;;;;;;;1.70;1.50;;;;;;;19.02;70.28;95037.03;4359770;32;20185;-62
2023/10/14 10:54:01;;;;;;;1.03;0.70;;;;;;;19.06;69.96;95039.78;4356318;32;20186;-62
2023/10/14 10:56:31;;;;;;;0.90;0.90;;;;;;;19.10;69.74;95035.25;4339443;32;20200;-62
2023/10/14 10:58:58;;;;;;;5.43;2.53;;;;;;;19.09;70.00;95023.72;4360205;32;20310;-62
2023/10/14 11:01:24;;;;;;;1.00;0.87;;;;;;;19.04;69.92;95031.28;4340240;32;20200;-60
2023/10/14 11:03:50;;;;;;;2.07;1.23;;;;;;;19.12;70.80;95036.44;4355240;32;20193;-61
2023/10/14 11:06:17;;;;;;;1.70;1.60;;;;;;;19.22;69.91;95024.34;4361337;32;20193;-61
2023/10/14 11:08:46;;;;;;;1.50;1.10;;;;;;;19.30;69.76;95027.97;4345283;32;20199;-60
2023/10/14 11:11:12;;;;;;;1.20;1.10;;;;;;;19.39;69.19;95021.19;4362044;32;20275;-60
2023/10/14 11:13:39;;;;;;;1.10;1.10;;;;;;;19.30;68.87;95041.41;4360642;32;20246;-60
2023/10/14 11:16:13;;;;;;;1.80;1.30;;;;;;;19.28;69.47;95030.22;4360995;32;20193;-62
2023/10/14 11:18:47;;;;;;;1.53;1.20;;;;;;;19.41;68.73;95028.91;4349093;32;20246;-60
2023/10/14 11:21:14;;;;;;;0.40;0.40;;;;;;;19.36;69.43;95027.28;4356238;32;20228;-60
2023/10/14 11:23:41;;;;;;;1.77;1.20;;;;;;;19.39;69.02;95013.12;4362282;32;20208;-60
2023/10/14 11:26:15;;;;;;;0.57;0.57;;;;;;;19.41;68.91;95016.25;4336979;32;20193;-60
2023/10/14 11:28:45;;;;;;;10.00;1.60;;;;;;;19.33;69.31;95011.84;4355566;32;20227;-60
2023/10/14 11:31:12;;;;;;;1.50;1.40;;;;;;;19.39;69.44;95009.66;4349757;32;20256;-61
2023/10/14 11:33:39;;;;;;;1.07;0.73;;;;;;;19.42;69.17;95006.25;4348850;32;20221;-60
2023/10/14 11:36:05;;;;;;;1.10;1.10;;;;;;;19.44;69.03;95006.69;4362363;32;20216;-60
2023/10/14 11:38:32;;;;;;;1.63;1.53;;;;;;;19.43;69.18;95010.50;4334390;32;20196;-60
2023/10/14 11:40:58;;;;;;;0.97;0.97;;;;;;;19.45;69.01;95002.88;4362276;32;20193;-60
2023/10/14 11:43:24;;;;;;;0.70;0.70;;;;;;;19.41;68.97;94999.31;4351978;32;20212;-61
2023/10/14 11:45:51;;;;;;;0.67;0.67;;;;;;;19.43;69.08;94995.16;4362408;32;20258;-60
2023/10/14 11:48:26;;;;;;;2.60;2.07;;;;;;;19.51;69.25;94990.72;4348331;32;20232;-60
2023/10/14 11:50:58;;;;;;;0.80;0.80;;;;;;;19.59;69.86;95003.13;4348795;32;20240;-60
2023/10/14 11:53:27;;;;;;;1.30;1.30;;;;;;;19.67;69.42;94996.75;4345819;32;20189;-61
2023/10/14 11:55:54;;;;;;;0.40;0.40;;;;;;;19.61;68.97;94987.41;4345155;32;20193;-60
2023/10/14 11:58:20;;;;;;;0.77;0.77;;;;;;;19.52;68.59;94986.88;4356706;32;20249;-61
2023/10/14 12:00:45;;;;;;;8.37;1.40;;;;;;;19.55;68.67;94988.84;4354245;32;20193;-60
2023/10/14 12:03:13;;;;;;;0.80;0.80;;;;;;;19.67;68.33;94982.50;4348670;32;20208;-60
2023/10/14 12:05:39;;;;;;;1.67;1.57;;;;;;;19.65;68.68;94990.16;4360509;32;20203;-61
2023/10/14 12:08:08;;;;;;;0.60;0.60;;;;;;;19.72;68.80;94984.91;4353610;32;20208;-61
2023/10/14 12:10:34;;;;;;;0.53;0.53;;;;;;;19.81;68.11;94980.03;4348209;32;20208;-60
2023/10/14 12:13:03;;;;;;;0.80;0.80;;;;;;;19.80;68.96;94973.88;4351717;32;20208;-61
2023/10/14 12:15:34;;;;;;;0.90;0.90;;;;;;;19.80;68.53;94976.56;4357731;32;20182;-60